Fredericksville, Pennsylvania
Current Conditions -  °F | °C
As of 5:35 PM on Monday 22 Dec 2014 (Local Time) from KXLL Reporting Station
Haze Haze  
Wind Chill: 31°   Ceiling: 400
Heat Index: 37°   Visibility: 2.5mi
Dew Point: 34°   Wind: 9mph
Humidity: 87%   Direction: 40°NE
Pressure: 30.2"   Gusts: NA
Location:  40.4939°N, 75.6842°W
Report Text: KXLL 222235Z AUTO 04008KT 2 1/2SM BR OVC004 03/01 A3020 RMK AO2
Loading
Personal Weather Stations






























Interactive Weather Map New forecast layout! Learn more

10-Day Weather Forecast

Advertisements
Track Severe Weather on mobile